createdAt,value
2019-04-20T00:01:19.948Z,42.30
2019-04-20T00:03:48.240Z,42.40
2019-04-20T00:06:21.384Z,42.50
2019-04-20T00:09:04.949Z,43.40
2019-04-20T00:11:39.813Z,42.70
2019-04-20T00:14:07.062Z,42.90
2019-04-20T00:16:35.768Z,43.10
2019-04-20T00:19:09.292Z,43.20
2019-04-20T00:21:50.618Z,43.40
2019-04-20T00:24:26.922Z,43.50
2019-04-20T00:27:13.572Z,43.50
2019-04-20T00:29:45.235Z,43.70
2019-04-20T00:32:13.447Z,43.80
2019-04-20T00:34:38.295Z,43.70
2019-04-20T00:37:06.993Z,43.90
2019-04-20T00:39:38.878Z,43.90
2019-04-20T00:42:13.376Z,44.00
2019-04-20T00:44:45.829Z,44.00
2019-04-20T00:47:30.475Z,44.10
2019-04-20T00:50:02.558Z,44.30
2019-04-20T00:52:34.114Z,44.30
2019-04-20T00:54:58.024Z,44.40
2019-04-20T00:57:38.027Z,44.50
2019-04-20T01:00:22.887Z,44.60
2019-04-20T01:02:49.102Z,44.60
2019-04-20T01:05:35.410Z,44.80
2019-04-20T01:08:01.667Z,44.90
2019-04-20T01:10:38.508Z,45.10
2019-04-20T01:13:08.689Z,45.00
2019-04-20T01:15:48.874Z,45.30
2019-04-20T01:18:13.826Z,45.30
2019-04-20T01:20:45.144Z,45.40
2019-04-20T01:23:20.983Z,45.60
2019-04-20T01:25:57.895Z,45.70
2019-04-20T01:28:37.503Z,45.90
2019-04-20T01:31:06.485Z,46.00
2019-04-20T01:33:42.612Z,46.20
2019-04-20T01:36:19.630Z,46.40
2019-04-20T01:38:55.345Z,46.40
2019-04-20T01:41:09.600Z,46.50
2019-04-20T01:43:41.613Z,46.70
2019-04-20T01:46:19.817Z,46.80
2019-04-20T01:48:48.181Z,47.00
2019-04-20T01:51:26.385Z,47.00
2019-04-20T01:54:17.689Z,47.20
2019-04-20T01:56:47.590Z,47.50
2019-04-20T01:59:44.023Z,47.40
2019-04-20T02:02:35.487Z,47.40
2019-04-20T02:05:16.922Z,47.50
2019-04-20T02:07:48.800Z,47.50
2019-04-20T02:10:19.997Z,47.70
2019-04-20T02:12:57.574Z,47.80
2019-04-20T02:15:32.717Z,47.90
2019-04-20T02:18:11.793Z,48.00
2019-04-20T02:20:48.961Z,48.10
2019-04-20T02:23:19.947Z,48.20
2019-04-20T02:25:37.824Z,48.30
2019-04-20T02:28:27.751Z,48.50
2019-04-20T02:33:58.129Z,48.70
2019-04-20T02:36:45.756Z,48.90
2019-04-20T02:44:27.182Z,49.20
2019-04-20T02:52:02.986Z,49.60
2019-04-20T02:57:05.695Z,50.10
2019-04-20T03:02:01.428Z,50.20
2019-04-20T03:04:24.970Z,50.20
2019-04-20T03:07:06.765Z,50.40
2019-04-20T03:09:40.253Z,50.60
2019-04-20T03:12:18.540Z,50.60
2019-04-20T03:14:39.619Z,51.40
2019-04-20T03:17:25.608Z,50.80
2019-04-20T03:19:47.647Z,50.80
2019-04-20T03:22:48.311Z,51.00
2019-04-20T03:25:06.936Z,51.00
2019-04-20T03:27:41.038Z,51.40
2019-04-20T03:36:16.240Z,51.30
2019-04-20T03:38:33.009Z,51.30
2019-04-20T03:40:59.494Z,51.50
2019-04-20T03:43:20.164Z,51.60
2019-04-20T03:45:59.491Z,51.70
2019-04-20T03:48:41.163Z,51.70
2019-04-20T03:51:23.608Z,51.70
2019-04-20T03:54:08.537Z,51.80
2019-04-20T03:56:54.392Z,51.70
2019-04-20T03:59:43.728Z,51.70
2019-04-20T04:02:50.599Z,52.40
2019-04-20T04:05:19.359Z,51.50
2019-04-20T04:07:41.549Z,51.30
2019-04-20T04:10:20.676Z,51.30
2019-04-20T04:13:12.318Z,51.10
2019-04-20T04:15:52.292Z,51.10
2019-04-20T04:18:28.200Z,51.30
2019-04-20T04:21:02.955Z,50.70
2019-04-20T04:23:44.904Z,50.50
2019-04-20T04:26:17.173Z,50.20
2019-04-20T04:28:47.583Z,50.00
2019-04-20T04:31:28.023Z,49.80
2019-04-20T04:34:14.721Z,49.50
2019-04-20T04:36:30.153Z,49.30
2019-04-20T04:39:13.861Z,48.90
2019-04-20T04:41:39.806Z,48.40
2019-04-20T04:44:11.224Z,48.00
2019-04-20T04:46:29.131Z,47.30
2019-04-20T04:49:09.556Z,46.50
2019-04-20T04:51:44.653Z,45.90
2019-04-20T04:54:16.416Z,45.50
2019-04-20T04:56:41.715Z,45.00
2019-04-20T04:59:13.354Z,44.70
2019-04-20T05:01:46.983Z,44.40
2019-04-20T05:04:41.507Z,44.00
2019-04-20T05:07:07.273Z,43.40
2019-04-20T05:09:27.583Z,42.00
2019-04-20T05:12:05.366Z,41.40
2019-04-20T05:14:45.327Z,41.00
2019-04-20T05:17:21.944Z,40.60
2019-04-20T05:19:57.822Z,40.20
2019-04-20T05:22:31.075Z,39.90
2019-04-20T05:25:11.980Z,39.70
2019-04-20T05:27:51.199Z,39.40
2019-04-20T05:30:07.686Z,39.30
2019-04-20T05:32:47.832Z,39.10
2019-04-20T05:35:31.377Z,38.80
2019-04-20T05:38:13.290Z,38.50
2019-04-20T05:40:38.432Z,38.20
2019-04-20T05:43:22.899Z,38.00
2019-04-20T05:45:50.199Z,37.80
2019-04-20T05:48:26.150Z,37.40
2019-04-20T05:51:04.591Z,37.10
2019-04-20T05:53:38.570Z,36.70
2019-04-20T05:56:11.637Z,36.40
2019-04-20T05:58:44.811Z,36.30
2019-04-20T06:01:23.167Z,37.00
2019-04-20T06:03:49.044Z,36.20
2019-04-20T06:06:28.930Z,36.10
2019-04-20T06:08:59.644Z,36.00
2019-04-20T06:11:33.852Z,35.80
2019-04-20T06:14:10.477Z,36.00
2019-04-20T06:17:20.986Z,35.60
2019-04-20T06:19:46.673Z,35.40
2019-04-20T06:22:46.785Z,35.10
2019-04-20T06:25:23.984Z,35.30
2019-04-20T06:27:49.214Z,35.60
2019-04-20T06:30:12.180Z,36.20
2019-04-20T06:33:45.131Z,36.70
2019-04-20T06:38:49.722Z,38.10
2019-04-20T06:41:16.316Z,37.40
2019-04-20T06:43:40.937Z,37.40
2019-04-20T06:46:16.190Z,37.10
2019-04-20T06:48:46.087Z,37.00
2019-04-20T06:51:22.334Z,36.70
2019-04-20T06:53:52.517Z,36.60
2019-04-20T06:56:41.723Z,36.20
2019-04-20T06:59:21.574Z,35.90
2019-04-20T07:01:48.692Z,35.50
2019-04-20T07:04:36.518Z,35.10
2019-04-20T07:07:02.348Z,34.90
2019-04-20T07:09:32.451Z,34.60
2019-04-20T07:11:56.817Z,34.40
2019-04-20T07:14:25.883Z,34.20
2019-04-20T07:17:20.620Z,33.80
2019-04-20T07:19:51.765Z,33.50
2019-04-20T07:22:46.150Z,33.00
2019-04-20T07:25:02.479Z,32.70
2019-04-20T07:27:35.450Z,32.00
2019-04-20T07:30:14.999Z,31.70
2019-04-20T07:32:56.450Z,30.80
2019-04-20T07:35:22.062Z,31.20
2019-04-20T07:40:24.562Z,30.60
2019-04-20T07:42:58.744Z,30.50
2019-04-20T07:45:33.536Z,30.30
2019-04-20T07:48:11.263Z,30.10
2019-04-20T07:50:35.182Z,30.00
2019-04-20T07:53:08.913Z,29.90
2019-04-20T07:55:51.113Z,29.80
2019-04-20T07:58:10.898Z,29.70
2019-04-20T08:01:03.963Z,29.40
2019-04-20T08:03:38.709Z,29.20
2019-04-20T08:06:17.500Z,29.10
2019-04-20T08:08:57.377Z,28.70
2019-04-20T08:11:47.317Z,28.80
2019-04-20T08:14:13.096Z,28.60
2019-04-20T08:19:17.467Z,28.10
2019-04-20T08:21:50.005Z,28.40
2019-04-20T08:24:23.399Z,28.60
2019-04-20T08:26:44.376Z,28.50
2019-04-20T08:29:41.748Z,28.50
2019-04-20T08:32:32.477Z,28.20
2019-04-20T08:35:17.824Z,28.20
2019-04-20T08:37:48.877Z,28.20
2019-04-20T08:40:14.350Z,28.10
2019-04-20T08:42:56.024Z,28.20
2019-04-20T08:45:24.122Z,27.80
2019-04-20T08:47:57.004Z,27.80
2019-04-20T08:50:27.077Z,27.60
2019-04-20T08:53:15.658Z,27.50
2019-04-20T08:55:29.777Z,27.80
2019-04-20T08:57:49.208Z,27.30
2019-04-20T09:00:29.395Z,27.10
2019-04-20T09:03:09.316Z,27.20
2019-04-20T09:05:45.573Z,26.80
2019-04-20T09:08:14.390Z,26.80
2019-04-20T09:10:55.972Z,26.60
2019-04-20T09:13:21.281Z,27.20
2019-04-20T09:15:47.631Z,27.40
2019-04-20T09:18:40.067Z,27.60
2019-04-20T09:21:09.769Z,27.70
2019-04-20T09:23:54.596Z,27.40
2019-04-20T09:26:29.751Z,27.20
2019-04-20T09:28:59.122Z,27.90
2019-04-20T09:31:40.470Z,27.50
2019-04-20T09:34:42.779Z,27.70
2019-04-20T09:37:33.799Z,27.70
2019-04-20T09:40:21.640Z,27.80
2019-04-20T09:42:49.525Z,28.00
2019-04-20T09:45:33.013Z,28.20
2019-04-20T09:48:00.061Z,28.50
2019-04-20T09:50:50.945Z,28.80
2019-04-20T09:53:19.750Z,28.60
2019-04-20T09:55:59.324Z,28.40
2019-04-20T09:58:21.335Z,28.30
2019-04-20T10:01:00.817Z,28.40
2019-04-20T10:03:20.481Z,28.40
2019-04-20T10:05:51.912Z,28.30
2019-04-20T10:08:24.373Z,28.20
2019-04-20T10:10:56.194Z,28.30
2019-04-20T10:13:28.005Z,28.20
2019-04-20T10:15:59.709Z,28.30
2019-04-20T10:18:34.295Z,28.30
2019-04-20T10:21:05.834Z,28.20
2019-04-20T10:23:38.635Z,28.10
2019-04-20T10:26:10.680Z,27.30
2019-04-20T10:28:43.571Z,27.20
2019-04-20T10:31:14.986Z,27.10
2019-04-20T10:33:51.420Z,26.60
2019-04-20T10:36:37.484Z,26.60
2019-04-20T10:39:10.868Z,26.80
2019-04-20T10:41:50.153Z,27.00
2019-04-20T10:44:16.712Z,27.00
2019-04-20T10:46:49.153Z,27.20
2019-04-20T10:49:20.926Z,27.40
2019-04-20T10:51:53.577Z,27.50
2019-04-20T10:54:27.256Z,27.40
2019-04-20T10:57:01.405Z,27.30
2019-04-20T10:59:34.250Z,27.30
2019-04-20T11:02:07.935Z,27.40
2019-04-20T11:04:40.898Z,27.40
2019-04-20T11:07:12.505Z,26.80
2019-04-20T11:09:44.817Z,26.30
2019-04-20T11:12:16.648Z,25.90
2019-04-20T11:14:48.338Z,25.60
2019-04-20T11:17:20.430Z,25.80
2019-04-20T11:19:52.244Z,25.80
2019-04-20T11:22:24.161Z,26.00
2019-04-20T11:24:56.570Z,26.50
2019-04-20T11:27:29.940Z,26.50
2019-04-20T11:30:02.682Z,26.50
2019-04-20T11:32:35.998Z,26.60
2019-04-20T11:35:18.931Z,26.60
2019-04-20T11:37:42.793Z,26.60
2019-04-20T11:40:15.029Z,26.60
2019-04-20T11:42:47.832Z,26.60
2019-04-20T11:45:22.655Z,26.70
2019-04-20T11:47:55.624Z,26.60
2019-04-20T11:50:27.524Z,26.60
2019-04-20T11:52:59.365Z,26.40
2019-04-20T11:55:30.804Z,26.30
2019-04-20T11:58:03.711Z,26.30
2019-04-20T12:00:53.966Z,26.30
2019-04-20T12:03:24.812Z,26.10
2019-04-20T12:05:56.998Z,26.10
2019-04-20T12:08:25.189Z,26.00
2019-04-20T12:10:59.643Z,25.80
2019-04-20T12:13:34.505Z,26.00
2019-04-20T12:16:05.887Z,26.10
2019-04-20T12:18:37.941Z,26.20
2019-04-20T12:21:10.545Z,26.00
2019-04-20T12:23:42.390Z,25.80
2019-04-20T12:26:14.834Z,25.90
2019-04-20T12:28:47.614Z,25.90
2019-04-20T12:31:23.700Z,25.90
2019-04-20T12:33:53.001Z,26.00
2019-04-20T12:36:25.961Z,26.00
2019-04-20T12:38:57.588Z,26.10
2019-04-20T12:41:37.892Z,26.40
2019-04-20T12:44:03.778Z,26.20
2019-04-20T12:46:36.023Z,26.30
2019-04-20T12:49:07.837Z,26.20
2019-04-20T12:51:46.527Z,26.70
2019-04-20T12:54:12.855Z,26.10
2019-04-20T12:56:44.706Z,26.00
2019-04-20T12:59:16.210Z,26.10
2019-04-20T13:01:47.514Z,26.00
2019-04-20T13:04:18.905Z,25.90
2019-04-20T13:06:53.752Z,25.50
2019-04-20T13:09:26.301Z,25.60
2019-04-20T13:12:10.760Z,25.60
2019-04-20T13:16:02.619Z,25.50
2019-04-20T13:18:41.563Z,25.50
2019-04-20T13:21:16.759Z,25.50
2019-04-20T13:24:05.062Z,25.50
2019-04-20T13:26:40.758Z,25.70
2019-04-20T13:29:12.957Z,25.50
2019-04-20T13:31:50.154Z,25.50
2019-04-20T13:34:22.329Z,25.50
2019-04-20T13:36:53.773Z,25.80
2019-04-20T13:39:26.750Z,25.90
2019-04-20T13:42:09.569Z,26.00
2019-04-20T13:44:32.670Z,26.00
2019-04-20T13:47:05.114Z,26.10
2019-04-20T13:49:36.853Z,26.20
2019-04-20T13:52:08.801Z,26.40
2019-04-20T13:54:40.601Z,26.40
2019-04-20T13:57:19.743Z,26.50
2019-04-20T13:59:55.888Z,26.50
2019-04-20T14:02:48.898Z,26.50
2019-04-20T14:05:30.823Z,26.50
2019-04-20T14:08:05.754Z,26.50
2019-04-20T14:10:39.870Z,26.70
2019-04-20T14:13:16.597Z,26.80
2019-04-20T14:15:47.212Z,26.90
2019-04-20T14:18:19.431Z,26.90
2019-04-20T14:20:58.334Z,27.00
2019-04-20T14:23:32.757Z,27.00
2019-04-20T14:26:04.981Z,27.00
2019-04-20T14:28:36.793Z,27.00
2019-04-20T14:31:11.936Z,26.90
2019-04-20T14:33:44.660Z,27.00
2019-04-20T14:36:16.936Z,27.00
2019-04-20T14:38:49.788Z,26.90
2019-04-20T14:41:22.364Z,26.80
2019-04-20T14:43:57.273Z,26.80
2019-04-20T14:46:29.535Z,26.50
2019-04-20T14:49:03.350Z,26.30
2019-04-20T14:51:35.306Z,26.20
2019-04-20T14:54:09.633Z,26.20
2019-04-20T14:56:43.495Z,26.00
2019-04-20T14:59:21.631Z,26.10
2019-04-20T15:01:56.712Z,26.30
2019-04-20T15:04:30.226Z,26.30
2019-04-20T15:07:02.526Z,26.40
2019-04-20T15:09:37.539Z,26.70
2019-04-20T15:12:08.814Z,26.80
2019-04-20T15:14:43.157Z,27.00
2019-04-20T15:17:21.499Z,27.00
2019-04-20T15:20:09.914Z,27.10
2019-04-20T15:22:47.606Z,27.40
2019-04-20T15:25:18.987Z,27.50
2019-04-20T15:27:52.304Z,27.70
2019-04-20T15:30:24.438Z,27.90
2019-04-20T15:32:59.024Z,28.20
2019-04-20T15:35:30.192Z,28.40
2019-04-20T15:38:02.917Z,28.60
2019-04-20T15:40:35.242Z,28.70
2019-04-20T15:43:13.521Z,28.90
2019-04-20T15:45:43.331Z,29.00
2019-04-20T15:48:14.269Z,29.10
2019-04-20T15:50:46.104Z,29.20
2019-04-20T15:53:17.774Z,29.30
2019-04-20T15:55:50.506Z,28.90
2019-04-20T15:58:27.927Z,29.50
2019-04-20T16:01:00.532Z,29.80
2019-04-20T16:03:37.494Z,29.90
2019-04-20T16:06:11.363Z,30.40
2019-04-20T16:08:50.208Z,30.70
2019-04-20T16:11:21.897Z,30.90
2019-04-20T16:13:56.190Z,32.20
2019-04-20T16:16:29.958Z,31.70
2019-04-20T16:19:06.228Z,31.70
2019-04-20T16:21:37.364Z,32.20
2019-04-20T16:24:14.860Z,32.30
2019-04-20T16:26:51.595Z,32.50
2019-04-20T16:29:23.955Z,32.60
2019-04-20T16:31:58.327Z,32.90
2019-04-20T16:34:31.659Z,33.10
2019-04-20T16:37:04.281Z,33.10
2019-04-20T16:39:40.704Z,34.00
2019-04-20T16:42:14.569Z,33.40
2019-04-20T16:44:47.211Z,33.50
2019-04-20T16:47:21.883Z,33.70
2019-04-20T16:49:55.026Z,33.80
2019-04-20T16:52:26.602Z,33.70
2019-04-20T16:55:02.166Z,34.10
2019-04-20T16:57:35.137Z,34.00
2019-04-20T17:00:07.739Z,34.20
2019-04-20T17:02:40.434Z,34.20
2019-04-20T17:05:13.401Z,34.30
2019-04-20T17:07:47.047Z,34.30
2019-04-20T17:10:22.354Z,34.50
2019-04-20T17:12:53.691Z,34.50
2019-04-20T17:15:25.537Z,34.70
2019-04-20T17:17:58.963Z,34.60
2019-04-20T17:20:30.758Z,34.80
2019-04-20T17:23:05.621Z,35.10
2019-04-20T17:25:35.561Z,35.10
2019-04-20T17:28:28.896Z,35.20
2019-04-20T17:31:13.521Z,35.40
2019-04-20T17:33:58.960Z,35.40
2019-04-20T17:36:28.934Z,35.40
2019-04-20T17:38:59.765Z,35.50
2019-04-20T17:41:48.912Z,35.80
2019-04-20T17:44:27.878Z,35.90
2019-04-20T17:46:48.970Z,36.10
2019-04-20T17:49:25.952Z,36.20
2019-04-20T17:52:12.646Z,36.40
2019-04-20T17:54:22.833Z,36.50
2019-04-20T17:56:54.420Z,36.50
2019-04-20T17:59:28.377Z,36.70
2019-04-20T18:02:43.198Z,36.80
2019-04-20T18:05:39.393Z,36.90
2019-04-20T18:08:15.391Z,36.90
2019-04-20T18:10:40.381Z,37.20
2019-04-20T18:13:05.715Z,37.20
2019-04-20T18:15:45.491Z,37.30
2019-04-20T18:18:35.468Z,37.50
2019-04-20T18:21:18.977Z,37.60
2019-04-20T18:23:51.803Z,37.60
2019-04-20T18:26:43.214Z,37.70
2019-04-20T18:31:45.356Z,38.00
2019-04-20T18:34:25.379Z,38.10
2019-04-20T18:36:56.386Z,38.10
2019-04-20T18:39:37.457Z,38.10
2019-04-20T18:42:11.110Z,38.20
2019-04-20T18:44:54.595Z,38.20
2019-04-20T18:47:28.997Z,38.20
2019-04-20T18:49:54.964Z,38.30
2019-04-20T18:52:17.806Z,38.40
2019-04-20T18:54:52.005Z,38.60
2019-04-20T18:57:26.050Z,38.60
2019-04-20T18:59:57.224Z,38.60
2019-04-20T19:02:33.482Z,38.80
2019-04-20T19:05:03.844Z,38.80
2019-04-20T19:07:41.464Z,38.80
2019-04-20T19:10:19.558Z,38.90
2019-04-20T19:12:53.475Z,38.90
2019-04-20T19:16:00.138Z,39.10
2019-04-20T19:18:45.244Z,39.10
2019-04-20T19:21:04.495Z,39.20
2019-04-20T19:23:40.531Z,39.20
2019-04-20T19:26:15.464Z,39.30
2019-04-20T19:28:46.974Z,39.40
2019-04-20T19:31:32.787Z,39.40
2019-04-20T19:34:06.205Z,39.50
2019-04-20T19:36:31.996Z,39.60
2019-04-20T19:39:17.261Z,39.50
2019-04-20T19:41:40.685Z,39.70
2019-04-20T19:44:13.574Z,39.60
2019-04-20T19:46:55.007Z,39.90
2019-04-20T19:49:21.678Z,39.90
2019-04-20T19:52:13.237Z,40.10
2019-04-20T19:54:38.622Z,40.10
2019-04-20T19:57:04.909Z,41.00
2019-04-20T19:59:31.527Z,40.30
2019-04-20T20:02:05.532Z,40.50
2019-04-20T20:04:48.620Z,40.70
2019-04-20T20:07:21.962Z,41.00
2019-04-20T20:09:54.655Z,41.10
2019-04-20T20:12:21.340Z,41.30
2019-04-20T20:14:53.486Z,41.60
2019-04-20T20:17:45.603Z,41.90
2019-04-20T20:22:37.749Z,42.30
2019-04-20T20:25:05.700Z,42.60
2019-04-20T20:27:47.908Z,42.80
2019-04-20T20:30:21.546Z,42.90
2019-04-20T20:33:01.299Z,43.00
2019-04-20T20:35:23.656Z,43.30
2019-04-20T20:37:57.129Z,43.40
2019-04-20T20:40:29.890Z,43.50
2019-04-20T20:43:08.392Z,44.50
2019-04-20T20:45:38.476Z,43.90
2019-04-20T20:48:22.683Z,44.10
2019-04-20T20:50:53.321Z,44.20
2019-04-20T20:53:18.723Z,44.40
2019-04-20T20:55:47.964Z,44.40
2019-04-20T20:58:32.365Z,44.60
2019-04-20T21:00:57.622Z,44.60
2019-04-20T21:03:31.238Z,44.70
2019-04-20T21:05:59.836Z,44.90
2019-04-20T21:08:35.273Z,44.80
2019-04-20T21:11:14.734Z,44.90
2019-04-20T21:13:42.855Z,45.10
2019-04-20T21:16:17.310Z,45.10
2019-04-20T21:19:03.210Z,45.20
2019-04-20T21:21:34.917Z,45.40
2019-04-20T21:24:06.300Z,45.40
2019-04-20T21:26:35.647Z,45.50
2019-04-20T21:29:03.913Z,45.60
2019-04-20T21:31:36.687Z,45.70
2019-04-20T21:34:15.131Z,45.80
2019-04-20T21:36:43.410Z,46.00
2019-04-20T21:39:21.471Z,46.90
2019-04-20T21:41:56.825Z,47.10
2019-04-20T21:44:28.707Z,47.20
2019-04-20T21:46:56.725Z,47.20
2019-04-20T21:49:42.291Z,47.30
2019-04-20T21:52:06.543Z,47.50
2019-04-20T21:54:36.029Z,47.40
2019-04-20T21:57:10.799Z,47.50
2019-04-20T21:59:45.019Z,47.60
2019-04-20T22:02:21.691Z,47.70
2019-04-20T22:04:51.512Z,47.80
2019-04-20T22:07:22.979Z,47.80
2019-04-20T22:09:55.383Z,48.00
2019-04-20T22:12:37.856Z,47.90
2019-04-20T22:15:10.127Z,48.10
2019-04-20T22:17:36.363Z,48.20
2019-04-20T22:20:20.144Z,48.30
2019-04-20T22:22:57.172Z,48.50
2019-04-20T22:25:33.213Z,48.50
2019-04-20T22:27:50.402Z,48.70
2019-04-20T22:30:22.139Z,48.80
2019-04-20T22:32:56.580Z,48.80
2019-04-20T22:35:31.195Z,48.90
2019-04-20T22:38:14.270Z,49.10
2019-04-20T22:40:48.999Z,49.20
2019-04-20T22:43:33.705Z,49.20
2019-04-20T22:46:25.819Z,49.40
2019-04-20T22:49:07.209Z,49.30
2019-04-20T22:51:39.962Z,49.40
2019-04-20T22:56:44.060Z,49.60
2019-04-20T22:59:12.548Z,49.60
2019-04-20T23:01:45.853Z,49.80
2019-04-20T23:04:12.804Z,49.80
2019-04-20T23:06:48.539Z,49.80
2019-04-20T23:09:18.842Z,49.90
2019-04-20T23:11:54.641Z,50.00
2019-04-20T23:14:24.669Z,50.10
2019-04-20T23:16:57.577Z,50.30
2019-04-20T23:19:40.669Z,50.30
2019-04-20T23:22:09.918Z,50.40
2019-04-20T23:24:39.673Z,50.50
2019-04-20T23:27:18.139Z,50.70
2019-04-20T23:29:45.210Z,50.70
2019-04-20T23:32:19.487Z,50.80
2019-04-20T23:34:57.640Z,50.90
2019-04-20T23:37:31.446Z,50.90
2019-04-20T23:40:00.441Z,51.70
2019-04-20T23:42:45.869Z,52.00
2019-04-20T23:45:43.853Z,51.20
2019-04-20T23:48:22.701Z,51.20
2019-04-20T23:51:11.218Z,51.30
2019-04-20T23:53:48.834Z,51.40
2019-04-20T23:56:15.641Z,51.40
2019-04-20T23:58:46.585Z,51.50
